createdAt,value
2018-07-20T00:01:11.340Z,6.90
2018-07-20T00:03:39.904Z,5.90
2018-07-20T00:06:08.451Z,5.40
2018-07-20T00:08:37.016Z,6.80
2018-07-20T00:11:05.639Z,4.83
2018-07-20T00:13:34.125Z,4.73
2018-07-20T00:16:02.843Z,5.43
2018-07-20T00:18:31.344Z,5.00
2018-07-20T00:20:59.852Z,6.50
2018-07-20T00:23:28.547Z,6.30
2018-07-20T00:25:57.092Z,11.27
2018-07-20T00:28:25.653Z,9.40
2018-07-20T00:30:54.222Z,5.57
2018-07-20T00:33:22.783Z,6.40
2018-07-20T00:35:51.330Z,6.40
2018-07-20T00:38:19.882Z,6.30
2018-07-20T00:40:48.484Z,7.20
2018-07-20T00:43:17.093Z,6.70
2018-07-20T00:45:45.600Z,6.47
2018-07-20T00:48:14.208Z,6.80
2018-07-20T00:50:42.748Z,5.90
2018-07-20T00:53:11.283Z,5.47
2018-07-20T00:55:39.877Z,6.50
2018-07-20T00:58:08.504Z,6.40
2018-07-20T01:00:37.113Z,8.37
2018-07-20T01:03:05.959Z,5.80
2018-07-20T01:05:34.606Z,6.03
2018-07-20T01:08:03.116Z,10.90
2018-07-20T01:10:31.720Z,6.83
2018-07-20T01:13:00.243Z,6.47
2018-07-20T01:15:28.792Z,6.50
2018-07-20T01:17:57.396Z,6.83
2018-07-20T01:20:25.938Z,5.67
2018-07-20T01:22:54.551Z,5.53
2018-07-20T01:25:23.124Z,5.93
2018-07-20T01:27:51.731Z,7.70
2018-07-20T01:30:20.303Z,6.30
2018-07-20T01:32:48.900Z,5.70
2018-07-20T01:35:17.478Z,7.33
2018-07-20T01:37:46.024Z,5.90
2018-07-20T01:40:14.599Z,7.17
2018-07-20T01:42:43.240Z,6.83
2018-07-20T01:45:11.867Z,6.63
2018-07-20T01:47:40.451Z,6.37
2018-07-20T01:50:09.212Z,12.00
2018-07-20T01:52:37.744Z,7.30
2018-07-20T01:55:06.446Z,6.47
2018-07-20T01:57:35.020Z,6.33
2018-07-20T02:00:03.705Z,6.40
2018-07-20T02:02:32.264Z,7.10
2018-07-20T02:05:00.835Z,4.93
2018-07-20T02:07:29.395Z,8.23
2018-07-20T02:09:57.976Z,5.33
2018-07-20T02:12:26.549Z,6.47
2018-07-20T02:14:55.077Z,6.47
2018-07-20T02:17:23.632Z,12.00
2018-07-20T02:19:52.228Z,5.80
2018-07-20T02:22:20.778Z,5.33
2018-07-20T02:24:49.937Z,6.40
2018-07-20T02:27:18.569Z,6.80
2018-07-20T02:29:47.159Z,7.33
2018-07-20T02:32:15.774Z,7.10
2018-07-20T02:34:44.291Z,9.80
2018-07-20T02:37:12.923Z,6.40
2018-07-20T02:39:41.437Z,6.37
2018-07-20T02:42:09.640Z,6.03
2018-07-20T02:44:38.164Z,7.20
2018-07-20T02:47:06.901Z,6.40
2018-07-20T02:49:35.405Z,10.43
2018-07-20T02:52:03.950Z,6.73
2018-07-20T02:54:32.540Z,7.10
2018-07-20T02:57:01.110Z,7.73
2018-07-20T02:59:29.701Z,6.70
2018-07-20T03:01:58.274Z,7.70
2018-07-20T03:04:26.871Z,6.73
2018-07-20T03:06:55.450Z,7.10
2018-07-20T03:09:24.106Z,6.40
2018-07-20T03:11:52.628Z,6.63
2018-07-20T03:14:21.284Z,7.13
2018-07-20T03:16:50.354Z,7.70
2018-07-20T03:19:18.915Z,6.67
2018-07-20T03:21:47.448Z,6.53
2018-07-20T03:24:15.976Z,6.47
2018-07-20T03:26:44.619Z,6.13
2018-07-20T03:29:13.204Z,5.90
2018-07-20T03:31:41.733Z,5.47
2018-07-20T03:34:10.350Z,6.03
2018-07-20T03:36:38.902Z,6.17
2018-07-20T03:39:08.904Z,5.37
2018-07-20T03:41:38.100Z,6.23
2018-07-20T03:44:07.124Z,6.67
2018-07-20T03:46:35.794Z,7.50
2018-07-20T03:49:04.411Z,6.60
2018-07-20T03:51:32.976Z,6.70
2018-07-20T03:54:01.510Z,6.03
2018-07-20T03:56:30.064Z,7.30
2018-07-20T03:58:58.644Z,8.40
2018-07-20T04:01:27.232Z,7.03
2018-07-20T04:03:55.764Z,7.80
2018-07-20T04:06:24.267Z,8.90
2018-07-20T04:08:52.936Z,6.77
2018-07-20T04:11:21.537Z,7.17
2018-07-20T04:13:50.069Z,7.53
2018-07-20T04:16:18.626Z,8.03
2018-07-20T04:18:47.192Z,11.43
2018-07-20T04:21:15.701Z,7.40
2018-07-20T04:23:44.317Z,7.30
2018-07-20T04:26:12.844Z,6.90
2018-07-20T04:28:41.451Z,6.20
2018-07-20T04:31:10.077Z,9.60
2018-07-20T04:33:38.603Z,6.70
2018-07-20T04:36:07.454Z,6.10
2018-07-20T04:38:36.060Z,7.83
2018-07-20T04:41:04.663Z,6.60
2018-07-20T04:43:33.251Z,8.20
2018-07-20T04:46:02.097Z,7.10
2018-07-20T04:48:30.700Z,8.10
2018-07-20T04:50:59.208Z,8.50
2018-07-20T04:53:27.828Z,8.17
2018-07-20T04:55:56.350Z,7.20
2018-07-20T04:58:24.976Z,5.97
2018-07-20T05:00:53.522Z,6.47
2018-07-20T05:03:22.040Z,6.90
2018-07-20T05:05:50.666Z,8.20
2018-07-20T05:08:19.192Z,5.87
2018-07-20T05:10:47.753Z,5.83
2018-07-20T05:13:16.315Z,5.47
2018-07-20T05:15:44.946Z,5.47
2018-07-20T05:18:13.527Z,5.37
2018-07-20T05:20:42.115Z,5.97
2018-07-20T05:23:10.641Z,5.17
2018-07-20T05:25:39.271Z,4.60
2018-07-20T05:28:07.803Z,6.97
2018-07-20T05:30:36.385Z,7.50
2018-07-20T05:33:05.753Z,7.60
2018-07-20T05:35:34.502Z,5.30
2018-07-20T05:38:03.098Z,5.10
2018-07-20T05:40:31.680Z,4.73
2018-07-20T05:43:00.296Z,5.43
2018-07-20T05:45:29.746Z,7.50
2018-07-20T05:47:58.301Z,5.70
2018-07-20T05:50:26.908Z,5.43
2018-07-20T05:52:55.986Z,7.97
2018-07-20T05:55:24.590Z,7.80
2018-07-20T05:57:53.219Z,6.93
2018-07-20T06:00:21.770Z,4.87
2018-07-20T06:02:49.974Z,5.40
2018-07-20T06:05:18.649Z,5.90
2018-07-20T06:07:47.192Z,6.07
2018-07-20T06:10:15.792Z,5.50
2018-07-20T06:12:44.382Z,7.50
2018-07-20T06:15:12.933Z,7.63
2018-07-20T06:17:41.490Z,6.20
2018-07-20T06:20:10.668Z,6.40
2018-07-20T06:22:39.576Z,5.30
2018-07-20T06:25:08.210Z,5.67
2018-07-20T06:27:36.791Z,6.77
2018-07-20T06:30:06.585Z,8.63
2018-07-20T06:32:35.130Z,5.80
2018-07-20T06:35:03.796Z,6.07
2018-07-20T06:37:32.814Z,7.37
2018-07-20T06:40:01.443Z,5.67
2018-07-20T06:42:30.045Z,5.60
2018-07-20T06:44:58.614Z,6.00
2018-07-20T06:47:27.201Z,6.00
2018-07-20T06:49:56.588Z,6.10
2018-07-20T06:52:25.087Z,7.10
2018-07-20T06:54:53.652Z,7.53
2018-07-20T06:57:22.152Z,7.00
2018-07-20T06:59:50.787Z,7.67
2018-07-20T07:02:19.337Z,6.20
2018-07-20T07:04:47.852Z,7.60
2018-07-20T07:07:16.430Z,7.63
2018-07-20T07:09:44.991Z,8.30
2018-07-20T07:12:13.560Z,6.60
2018-07-20T07:14:42.136Z,6.57
2018-07-20T07:17:11.275Z,6.57
2018-07-20T07:19:40.670Z,13.70
2018-07-20T07:22:09.285Z,6.43
2018-07-20T07:24:37.836Z,6.20
2018-07-20T07:27:06.732Z,6.03
2018-07-20T07:29:35.240Z,6.90
2018-07-20T07:32:03.752Z,7.87
2018-07-20T07:34:32.344Z,6.33
2018-07-20T07:37:00.861Z,6.10
2018-07-20T07:39:29.398Z,6.83
2018-07-20T07:41:58.029Z,8.20
2018-07-20T07:44:26.574Z,6.20
2018-07-20T07:46:55.144Z,6.07
2018-07-20T07:49:23.848Z,5.17
2018-07-20T07:51:52.367Z,8.53
2018-07-20T07:54:20.958Z,5.67
2018-07-20T07:56:50.128Z,6.33
2018-07-20T07:59:18.665Z,5.10
2018-07-20T08:01:47.440Z,6.70
2018-07-20T08:04:16.174Z,5.40
2018-07-20T08:06:44.742Z,5.67
2018-07-20T08:09:14.632Z,6.47
2018-07-20T08:11:43.221Z,5.43
2018-07-20T08:14:12.927Z,7.00
2018-07-20T08:16:41.500Z,5.53
2018-07-20T08:19:10.042Z,7.23
2018-07-20T08:21:38.649Z,6.00
2018-07-20T08:24:07.465Z,5.53
2018-07-20T08:26:36.104Z,6.57
2018-07-20T08:29:04.887Z,6.83
2018-07-20T08:31:33.503Z,7.80
2018-07-20T08:34:01.727Z,5.67
2018-07-20T08:36:30.426Z,7.00
2018-07-20T08:38:59.097Z,7.50
2018-07-20T08:41:27.734Z,6.90
2018-07-20T08:43:56.284Z,4.43
2018-07-20T08:46:25.850Z,4.70
2018-07-20T08:48:54.513Z,4.97
2018-07-20T08:51:23.224Z,4.23
2018-07-20T08:53:51.920Z,4.33
2018-07-20T08:56:20.432Z,4.70
2018-07-20T08:58:49.024Z,4.93
2018-07-20T09:01:17.861Z,4.47
2018-07-20T09:03:46.435Z,5.83
2018-07-20T09:06:15.023Z,5.43
2018-07-20T09:08:43.601Z,4.93
2018-07-20T09:11:13.118Z,4.30
2018-07-20T09:13:41.742Z,5.23
2018-07-20T09:16:10.225Z,6.03
2018-07-20T09:18:38.740Z,5.70
2018-07-20T09:21:07.472Z,4.57
2018-07-20T09:23:36.113Z,4.43
2018-07-20T09:26:04.817Z,4.00
2018-07-20T09:28:33.440Z,4.50
2018-07-20T09:31:02.021Z,3.80
2018-07-20T09:33:30.608Z,6.50
2018-07-20T09:35:59.175Z,7.03
2018-07-20T09:38:27.810Z,3.83
2018-07-20T09:40:56.931Z,10.93
2018-07-20T09:43:25.515Z,4.60
2018-07-20T09:45:54.056Z,3.70
2018-07-20T09:48:22.580Z,4.43
2018-07-20T09:50:51.170Z,6.40
2018-07-20T09:53:19.768Z,4.07
2018-07-20T09:55:47.944Z,5.47
2018-07-20T09:58:16.579Z,5.27
2018-07-20T10:00:51.248Z,5.53
2018-07-20T10:03:20.872Z,5.87
2018-07-20T10:05:49.548Z,4.00
2018-07-20T10:08:19.817Z,4.43
2018-07-20T10:10:48.482Z,3.87
2018-07-20T10:13:17.728Z,8.63
2018-07-20T10:15:46.325Z,6.27
2018-07-20T10:18:15.436Z,3.40
2018-07-20T10:20:44.064Z,6.87
2018-07-20T10:23:12.663Z,3.93
2018-07-20T10:25:41.424Z,3.30
2018-07-20T10:28:09.899Z,5.23
2018-07-20T10:30:38.501Z,3.90
2018-07-20T10:33:07.241Z,3.47
2018-07-20T10:35:36.107Z,3.67
2018-07-20T10:38:04.940Z,4.20
2018-07-20T10:40:33.585Z,7.90
2018-07-20T10:43:02.155Z,3.70
2018-07-20T10:45:30.752Z,4.33
2018-07-20T10:47:59.320Z,5.73
2018-07-20T10:50:27.950Z,5.83
2018-07-20T10:52:56.491Z,3.30
2018-07-20T10:55:25.042Z,4.00
2018-07-20T10:57:53.616Z,4.83
2018-07-20T11:00:22.195Z,2.97
2018-07-20T11:02:50.404Z,3.40
2018-07-20T11:05:19.024Z,4.67
2018-07-20T11:07:47.585Z,3.30
2018-07-20T11:10:16.177Z,3.70
2018-07-20T11:12:44.896Z,4.23
2018-07-20T11:15:13.516Z,3.87
2018-07-20T11:17:42.554Z,5.03
2018-07-20T11:20:11.362Z,2.80
2018-07-20T11:22:39.997Z,5.50
2018-07-20T11:25:08.700Z,6.10
2018-07-20T11:27:37.386Z,3.80
2018-07-20T11:30:06.336Z,5.33
2018-07-20T11:32:34.904Z,3.77
2018-07-20T11:35:03.947Z,3.43
2018-07-20T11:37:32.535Z,4.10
2018-07-20T11:40:01.104Z,4.53
2018-07-20T11:42:29.747Z,3.93
2018-07-20T11:44:58.357Z,5.80
2018-07-20T11:47:26.968Z,4.27
2018-07-20T11:49:55.590Z,4.90
2018-07-20T11:52:24.334Z,4.20
2018-07-20T11:54:52.945Z,3.53
2018-07-20T11:57:21.499Z,3.50
2018-07-20T11:59:50.082Z,2.97
2018-07-20T12:02:18.727Z,6.10
2018-07-20T12:04:47.454Z,3.43
2018-07-20T12:07:16.064Z,3.00
2018-07-20T12:09:44.635Z,5.03
2018-07-20T12:12:13.149Z,3.37
2018-07-20T12:14:41.733Z,4.63
2018-07-20T12:17:10.534Z,4.33
2018-07-20T12:19:39.167Z,3.50
2018-07-20T12:22:07.861Z,3.63
2018-07-20T12:24:36.440Z,5.33
2018-07-20T12:27:05.078Z,4.93
2018-07-20T12:29:33.624Z,3.10
2018-07-20T12:32:02.239Z,3.50
2018-07-20T12:34:30.820Z,3.63
2018-07-20T12:36:59.352Z,3.77
2018-07-20T12:39:27.974Z,3.63
2018-07-20T12:41:56.809Z,4.00
2018-07-20T12:44:25.440Z,6.83
2018-07-20T12:46:53.965Z,3.43
2018-07-20T12:49:22.563Z,3.77
2018-07-20T12:51:51.434Z,6.73
2018-07-20T12:54:20.054Z,5.00
2018-07-20T12:56:48.576Z,3.63
2018-07-20T12:59:16.785Z,3.80
2018-07-20T13:01:45.385Z,4.03
2018-07-20T13:04:14.579Z,2.80
2018-07-20T13:06:43.131Z,6.93
2018-07-20T13:09:12.981Z,3.43
2018-07-20T13:11:42.285Z,3.23
2018-07-20T13:14:11.782Z,3.00
2018-07-20T13:16:40.796Z,2.87
2018-07-20T13:19:09.403Z,3.77
2018-07-20T13:21:38.045Z,5.43
2018-07-20T13:24:06.924Z,5.73
2018-07-20T13:26:35.600Z,4.00
2018-07-20T13:29:04.198Z,3.20
2018-07-20T13:31:32.731Z,3.20
2018-07-20T13:34:01.291Z,6.07
2018-07-20T13:36:29.851Z,5.40
2018-07-20T13:38:58.438Z,4.47
2018-07-20T13:41:27.011Z,3.03
2018-07-20T13:43:55.553Z,2.87
2018-07-20T13:46:24.168Z,4.80
2018-07-20T13:48:52.745Z,4.73
2018-07-20T13:51:21.332Z,4.17
2018-07-20T13:53:49.883Z,3.20
2018-07-20T13:56:18.511Z,2.90
2018-07-20T13:58:47.125Z,2.97
2018-07-20T14:01:15.826Z,3.50
2018-07-20T14:03:44.392Z,3.80
2018-07-20T14:06:13.109Z,3.00
2018-07-20T14:08:41.702Z,3.30
2018-07-20T14:11:10.258Z,3.00
2018-07-20T14:13:39.036Z,3.47
2018-07-20T14:16:07.625Z,3.10
2018-07-20T14:18:36.211Z,4.83
2018-07-20T14:21:04.893Z,4.50
2018-07-20T14:23:33.446Z,6.83
2018-07-20T14:26:02.409Z,3.07
2018-07-20T14:28:30.992Z,4.50
2018-07-20T14:30:59.606Z,3.20
2018-07-20T14:33:28.276Z,3.37
2018-07-20T14:35:56.936Z,3.97
2018-07-20T14:38:25.513Z,4.07
2018-07-20T14:40:54.125Z,3.23
2018-07-20T14:43:22.979Z,3.57
2018-07-20T14:45:51.916Z,4.87
2018-07-20T14:48:20.513Z,3.60
2018-07-20T14:50:49.135Z,3.30
2018-07-20T14:53:17.903Z,3.30
2018-07-20T14:55:46.489Z,3.13
2018-07-20T14:58:15.184Z,7.37
2018-07-20T15:00:43.793Z,3.83
2018-07-20T15:03:12.388Z,3.53
2018-07-20T15:05:40.944Z,4.83
2018-07-20T15:08:09.492Z,4.60
2018-07-20T15:10:38.155Z,3.93
2018-07-20T15:13:06.682Z,4.20
2018-07-20T15:15:35.336Z,4.60
2018-07-20T15:18:04.019Z,3.77
2018-07-20T15:20:32.495Z,3.40
2018-07-20T15:23:01.088Z,3.30
2018-07-20T15:25:29.726Z,4.67
2018-07-20T15:27:58.236Z,3.73
2018-07-20T15:30:26.827Z,7.13
2018-07-20T15:32:55.410Z,7.10
2018-07-20T15:35:23.963Z,4.17
2018-07-20T15:37:52.575Z,5.70
2018-07-20T15:40:21.132Z,5.33
2018-07-20T15:42:49.721Z,4.20
2018-07-20T15:45:18.481Z,6.43
2018-07-20T15:47:47.098Z,4.37
2018-07-20T15:50:15.717Z,4.40
2018-07-20T15:55:13.286Z,4.30
2018-07-20T15:57:41.907Z,4.30
2018-07-20T16:00:10.537Z,4.27
2018-07-20T16:02:39.128Z,6.73
2018-07-20T16:05:07.714Z,4.47
2018-07-20T16:07:36.276Z,5.00
2018-07-20T16:10:05.216Z,4.93
2018-07-20T16:12:33.758Z,6.47
2018-07-20T16:15:02.294Z,7.50
2018-07-20T16:17:30.825Z,12.33
2018-07-20T16:19:59.427Z,6.20
2018-07-20T16:22:29.987Z,10.03
2018-07-20T16:24:59.955Z,9.27
2018-07-20T16:27:28.498Z,8.00
2018-07-20T16:29:57.097Z,15.10
2018-07-20T16:32:25.617Z,5.00
2018-07-20T16:34:54.183Z,5.10
2018-07-20T16:37:22.697Z,4.50
2018-07-20T16:39:51.254Z,5.47
2018-07-20T16:42:19.805Z,5.43
2018-07-20T16:44:48.589Z,8.70
2018-07-20T16:47:17.158Z,7.70
2018-07-20T16:49:45.661Z,6.73
2018-07-20T16:52:13.849Z,5.60
2018-07-20T16:54:42.372Z,4.77
2018-07-20T16:57:10.914Z,7.70
2018-07-20T16:59:39.473Z,7.60
2018-07-20T17:02:08.114Z,6.43
2018-07-20T17:04:36.657Z,8.47
2018-07-20T17:07:05.291Z,7.93
2018-07-20T17:09:33.849Z,6.07
2018-07-20T17:12:02.364Z,5.23
2018-07-20T17:14:31.007Z,5.00
2018-07-20T17:16:59.526Z,5.50
2018-07-20T17:19:28.209Z,4.00
2018-07-20T17:21:56.714Z,5.20
2018-07-20T17:24:25.256Z,6.20
2018-07-20T17:26:53.758Z,5.80
2018-07-20T17:29:22.661Z,4.53
2018-07-20T17:31:51.308Z,4.80
2018-07-20T17:34:19.900Z,3.93
2018-07-20T17:36:48.432Z,7.20
2018-07-20T17:39:17.083Z,5.30
2018-07-20T17:41:45.665Z,5.50
2018-07-20T17:44:14.239Z,8.50
2018-07-20T17:46:42.816Z,6.10
2018-07-20T17:49:11.377Z,5.53
2018-07-20T17:51:39.954Z,5.20
2018-07-20T17:54:08.544Z,6.80
2018-07-20T17:56:37.128Z,6.13
2018-07-20T17:59:05.730Z,5.63
2018-07-20T18:01:34.551Z,5.27
2018-07-20T18:04:03.317Z,9.20
2018-07-20T18:06:31.931Z,4.83
2018-07-20T18:09:00.500Z,4.20
2018-07-20T18:11:29.076Z,7.80
2018-07-20T18:13:57.740Z,12.07
2018-07-20T18:16:26.391Z,6.13
2018-07-20T18:18:54.920Z,5.10
2018-07-20T18:21:23.538Z,6.10
2018-07-20T18:23:52.100Z,6.57
2018-07-20T18:26:20.760Z,5.90
2018-07-20T18:28:49.326Z,5.37
2018-07-20T18:31:17.985Z,4.80
2018-07-20T18:33:46.635Z,5.90
2018-07-20T18:36:15.187Z,5.60
2018-07-20T18:38:44.653Z,5.83
2018-07-20T18:41:13.231Z,4.63
2018-07-20T18:43:41.842Z,5.33
2018-07-20T18:46:10.484Z,5.80
2018-07-20T18:48:39.041Z,5.90
2018-07-20T18:51:07.708Z,5.20
2018-07-20T18:53:36.320Z,5.13
2018-07-20T18:56:05.102Z,8.10
2018-07-20T18:58:33.563Z,6.17
2018-07-20T19:01:02.282Z,8.83
2018-07-20T19:03:30.896Z,8.07
2018-07-20T19:05:59.524Z,5.83
2018-07-20T19:08:28.116Z,6.33
2018-07-20T19:10:56.732Z,7.77
2018-07-20T19:13:25.337Z,7.23
2018-07-20T19:15:53.900Z,8.13
2018-07-20T19:18:22.461Z,8.67
2018-07-20T19:20:51.016Z,7.40
2018-07-20T19:23:19.628Z,7.50
2018-07-20T19:25:48.238Z,10.03
2018-07-20T19:28:16.789Z,7.23
2018-07-20T19:30:45.458Z,5.60
2018-07-20T19:33:14.019Z,7.07
2018-07-20T19:35:42.640Z,7.20
2018-07-20T19:38:11.245Z,9.73
2018-07-20T19:40:39.855Z,10.20
2018-07-20T19:43:08.432Z,8.13
2018-07-20T19:45:36.993Z,8.20
2018-07-20T19:48:05.890Z,7.60
2018-07-20T19:50:34.507Z,8.10
2018-07-20T19:53:03.199Z,6.90
2018-07-20T19:55:31.812Z,11.50
2018-07-20T19:58:00.394Z,11.43
2018-07-20T20:00:29.041Z,7.90
2018-07-20T20:02:57.780Z,9.23
2018-07-20T20:05:26.406Z,7.70
2018-07-20T20:07:55.005Z,8.70
2018-07-20T20:10:23.588Z,8.33
2018-07-20T20:12:52.148Z,8.60
2018-07-20T20:15:20.716Z,7.80
2018-07-20T20:17:49.483Z,8.57
2018-07-20T20:20:18.092Z,7.70
2018-07-20T20:22:46.665Z,6.60
2018-07-20T20:25:15.550Z,9.00
2018-07-20T20:27:44.159Z,8.87
2018-07-20T20:30:12.792Z,8.83
2018-07-20T20:32:41.397Z,8.30
2018-07-20T20:35:09.920Z,8.63
2018-07-20T20:37:39.732Z,8.20
2018-07-20T20:40:08.979Z,10.40
2018-07-20T20:42:37.755Z,9.37
2018-07-20T20:45:07.404Z,9.17
2018-07-20T20:47:36.002Z,9.97
2018-07-20T20:50:04.770Z,9.83
2018-07-20T20:52:33.414Z,10.13
2018-07-20T20:55:02.083Z,9.47
2018-07-20T20:57:30.967Z,10.63
2018-07-20T20:59:59.623Z,8.60
2018-07-20T21:02:28.167Z,9.23
2018-07-20T21:04:56.776Z,9.80
2018-07-20T21:07:24.963Z,9.50
2018-07-20T21:09:53.603Z,9.03
2018-07-20T21:12:22.656Z,9.83
2018-07-20T21:14:51.325Z,9.73
2018-07-20T21:17:19.503Z,9.83
2018-07-20T21:19:48.229Z,9.47
2018-07-20T21:22:16.887Z,8.43
2018-07-20T21:24:45.469Z,9.00
2018-07-20T21:27:14.396Z,11.10
2018-07-20T21:29:43.006Z,11.13
2018-07-20T21:32:11.621Z,10.70
2018-07-20T21:34:40.323Z,11.73
2018-07-20T21:37:08.849Z,10.33
2018-07-20T21:39:37.467Z,9.63
2018-07-20T21:42:06.416Z,9.83
2018-07-20T21:44:35.074Z,9.57
2018-07-20T21:47:04.034Z,10.27
2018-07-20T21:49:32.568Z,11.83
2018-07-20T21:52:01.204Z,11.43
2018-07-20T21:54:29.922Z,12.30
2018-07-20T21:56:58.590Z,11.63
2018-07-20T21:59:27.180Z,14.90
2018-07-20T22:01:55.787Z,10.47
2018-07-20T22:04:24.771Z,12.17
2018-07-20T22:06:53.385Z,10.67
2018-07-20T22:09:21.947Z,10.70
2018-07-20T22:11:50.826Z,10.17
2018-07-20T22:14:19.499Z,10.97
2018-07-20T22:16:48.154Z,10.33
2018-07-20T22:19:16.886Z,9.43
2018-07-20T22:21:45.478Z,10.40
2018-07-20T22:24:14.036Z,11.23
2018-07-20T22:26:42.652Z,11.33
2018-07-20T22:29:11.269Z,11.07
2018-07-20T22:31:39.898Z,10.77
2018-07-20T22:34:08.147Z,11.73
2018-07-20T22:36:36.767Z,11.90
2018-07-20T22:39:08.849Z,11.50
2018-07-20T22:41:37.469Z,13.27
2018-07-20T22:44:06.162Z,13.20
2018-07-20T22:46:34.769Z,12.07
2018-07-20T22:49:03.454Z,12.30
2018-07-20T22:51:32.073Z,12.50
2018-07-20T22:54:00.646Z,12.97
2018-07-20T22:56:29.229Z,11.50
2018-07-20T22:58:57.811Z,10.20
2018-07-20T23:01:26.407Z,11.77
2018-07-20T23:03:54.938Z,12.33
2018-07-20T23:06:23.511Z,12.00
2018-07-20T23:08:51.766Z,11.20
2018-07-20T23:11:20.365Z,11.60
2018-07-20T23:13:51.816Z,12.90
2018-07-20T23:16:20.434Z,9.17
2018-07-20T23:18:48.980Z,12.80
2018-07-20T23:21:17.866Z,9.67
2018-07-20T23:23:46.448Z,9.60
2018-07-20T23:26:15.408Z,8.43
2018-07-20T23:28:43.987Z,9.47
2018-07-20T23:31:12.588Z,10.27
2018-07-20T23:33:41.148Z,12.13
2018-07-20T23:36:09.697Z,8.67
2018-07-20T23:38:38.301Z,10.50
2018-07-20T23:41:06.994Z,11.47
2018-07-20T23:43:35.572Z,10.70
2018-07-20T23:46:04.260Z,11.30
2018-07-20T23:48:32.844Z,12.17
2018-07-20T23:51:01.448Z,11.67
2018-07-20T23:53:30.033Z,13.23
2018-07-20T23:55:58.609Z,14.27
2018-07-20T23:58:27.255Z,11.97
